sensor_id;sensor_type;location;lat;lon;timestamp;pressure;altitude;pressure_sealevel;temperature;humidity
21942;BME280;11135;54.192;15.670;2022-08-16T00:05:05;59315.84;;;-145.26;100.00
21942;BME280;11135;54.192;15.670;2022-08-16T00:11:11;59315.84;;;-145.26;100.00
21942;BME280;11135;54.192;15.670;2022-08-16T00:17:19;59315.84;;;-145.26;100.00
21942;BME280;11135;54.192;15.670;2022-08-16T00:23:23;59315.84;;;-145.26;100.00
21942;BME280;11135;54.192;15.670;2022-08-16T00:29:47;59315.84;;;-145.26;100.00
21942;BME280;11135;54.192;15.670;2022-08-16T00:36:13;59315.84;;;-145.26;100.00
21942;BME280;11135;54.192;15.670;2022-08-16T00:42:16;59315.84;;;-145.26;100.00
21942;BME280;11135;54.192;15.670;2022-08-16T00:48:32;59315.84;;;-145.26;100.00
21942;BME280;11135;54.192;15.670;2022-08-16T00:54:48;59315.84;;;-145.26;100.00
21942;BME280;11135;54.192;15.670;2022-08-16T01:00:53;59315.84;;;-145.26;100.00
21942;BME280;11135;54.192;15.670;2022-08-16T01:06:58;59315.84;;;-145.26;100.00
21942;BME280;11135;54.192;15.670;2022-08-16T01:13:07;59315.84;;;-145.26;100.00
21942;BME280;11135;54.192;15.670;2022-08-16T01:19:19;59315.84;;;-145.26;100.00
21942;BME280;11135;54.192;15.670;2022-08-16T01:25:28;59315.84;;;-145.26;100.00
21942;BME280;11135;54.192;15.670;2022-08-16T01:31:37;59315.84;;;-145.26;100.00
21942;BME280;11135;54.192;15.670;2022-08-16T01:37:46;59315.84;;;-145.26;100.00
21942;BME280;11135;54.192;15.670;2022-08-16T01:43:56;59315.84;;;-145.26;100.00
21942;BME280;11135;54.192;15.670;2022-08-16T01:50:03;59315.84;;;-145.26;100.00
21942;BME280;11135;54.192;15.670;2022-08-16T01:56:28;59315.84;;;-145.26;100.00
21942;BME280;11135;54.192;15.670;2022-08-16T02:02:33;59315.84;;;-145.26;100.00
21942;BME280;11135;54.192;15.670;2022-08-16T02:08:43;59315.84;;;-145.26;100.00
21942;BME280;11135;54.192;15.670;2022-08-16T02:14:52;59315.84;;;-145.26;100.00
21942;BME280;11135;54.192;15.670;2022-08-16T02:20:56;59315.84;;;-145.26;100.00
21942;BME280;11135;54.192;15.670;2022-08-16T02:27:00;59315.84;;;-145.26;100.00
21942;BME280;11135;54.192;15.670;2022-08-16T02:33:06;59315.84;;;-145.26;100.00
21942;BME280;11135;54.192;15.670;2022-08-16T02:39:13;59315.84;;;-145.26;100.00
21942;BME280;11135;54.192;15.670;2022-08-16T02:45:18;59315.84;;;-145.26;100.00
21942;BME280;11135;54.192;15.670;2022-08-16T02:51:26;59315.84;;;-145.26;100.00
21942;BME280;11135;54.192;15.670;2022-08-16T02:57:31;59315.84;;;-145.26;100.00
21942;BME280;11135;54.192;15.670;2022-08-16T03:03:35;59315.84;;;-145.26;100.00
21942;BME280;11135;54.192;15.670;2022-08-16T03:09:59;59315.84;;;-145.26;100.00
21942;BME280;11135;54.192;15.670;2022-08-16T03:16:05;59315.84;;;-145.26;100.00
21942;BME280;11135;54.192;15.670;2022-08-16T03:22:28;59315.84;;;-145.26;100.00
21942;BME280;11135;54.192;15.670;2022-08-16T03:28:32;59315.84;;;-145.26;100.00
21942;BME280;11135;54.192;15.670;2022-08-16T03:34:37;59315.84;;;-145.26;100.00
21942;BME280;11135;54.192;15.670;2022-08-16T03:40:41;59315.84;;;-145.26;100.00
21942;BME280;11135;54.192;15.670;2022-08-16T03:46:45;59315.84;;;-145.26;100.00
21942;BME280;11135;54.192;15.670;2022-08-16T03:52:52;59315.84;;;-145.26;100.00
21942;BME280;11135;54.192;15.670;2022-08-16T03:59:03;59315.84;;;-145.26;100.00
21942;BME280;11135;54.192;15.670;2022-08-16T04:05:06;59315.84;;;-145.26;100.00
21942;BME280;11135;54.192;15.670;2022-08-16T04:11:14;59315.84;;;-145.26;100.00
21942;BME280;11135;54.192;15.670;2022-08-16T04:17:18;59315.84;;;-145.26;100.00
21942;BME280;11135;54.192;15.670;2022-08-16T04:23:22;59315.84;;;-145.26;100.00
21942;BME280;11135;54.192;15.670;2022-08-16T04:29:27;59315.84;;;-145.26;100.00
21942;BME280;11135;54.192;15.670;2022-08-16T04:35:47;59315.84;;;-145.26;100.00
21942;BME280;11135;54.192;15.670;2022-08-16T04:41:51;59315.84;;;-145.26;100.00
21942;BME280;11135;54.192;15.670;2022-08-16T04:47:59;59315.84;;;-145.26;100.00
21942;BME280;11135;54.192;15.670;2022-08-16T04:54:03;59315.84;;;-145.26;100.00
21942;BME280;11135;54.192;15.670;2022-08-16T05:00:10;100589.56;;;23.65;67.71
21942;BME280;11135;54.192;15.670;2022-08-16T05:06:35;100593.03;;;23.67;68.12
21942;BME280;11135;54.192;15.670;2022-08-16T05:12:46;59315.84;;;-145.26;100.00
21942;BME280;11135;54.192;15.670;2022-08-16T05:18:51;59315.84;;;-145.26;100.00
21942;BME280;11135;54.192;15.670;2022-08-16T05:24:59;59315.84;;;-145.26;100.00
21942;BME280;11135;54.192;15.670;2022-08-16T05:31:10;59315.84;;;-145.26;100.00
21942;BME280;11135;54.192;15.670;2022-08-16T05:37:13;59315.84;;;-145.26;100.00
21942;BME280;11135;54.192;15.670;2022-08-16T05:43:18;59315.84;;;-145.26;100.00
21942;BME280;11135;54.192;15.670;2022-08-16T05:49:22;59315.84;;;-145.26;100.00
21942;BME280;11135;54.192;15.670;2022-08-16T05:55:41;59315.84;;;-145.26;100.00
21942;BME280;11135;54.192;15.670;2022-08-16T06:01:45;59315.84;;;-145.26;100.00
21942;BME280;11135;54.192;15.670;2022-08-16T06:07:51;59315.84;;;-145.26;100.00
21942;BME280;11135;54.192;15.670;2022-08-16T06:14:00;59315.84;;;-145.26;100.00
21942;BME280;11135;54.192;15.670;2022-08-16T06:20:06;59315.84;;;-145.26;100.00
21942;BME280;11135;54.192;15.670;2022-08-16T06:26:10;59315.84;;;-145.26;100.00
21942;BME280;11135;54.192;15.670;2022-08-16T06:32:15;59315.84;;;-145.26;100.00
21942;BME280;11135;54.192;15.670;2022-08-16T06:38:30;59315.84;;;-145.26;100.00
21942;BME280;11135;54.192;15.670;2022-08-16T06:44:35;59315.84;;;-145.26;100.00
21942;BME280;11135;54.192;15.670;2022-08-16T06:50:41;59315.84;;;-145.26;100.00
21942;BME280;11135;54.192;15.670;2022-08-16T06:56:48;59315.84;;;-145.26;100.00
21942;BME280;11135;54.192;15.670;2022-08-16T07:02:55;59315.84;;;-145.26;100.00
21942;BME280;11135;54.192;15.670;2022-08-16T07:09:02;59315.84;;;-145.26;100.00
21942;BME280;11135;54.192;15.670;2022-08-16T07:15:12;59315.84;;;-145.26;100.00
21942;BME280;11135;54.192;15.670;2022-08-16T07:21:19;59315.84;;;-145.26;100.00
21942;BME280;11135;54.192;15.670;2022-08-16T07:27:23;59315.84;;;-145.26;100.00
21942;BME280;11135;54.192;15.670;2022-08-16T07:33:28;59315.84;;;-145.26;100.00
21942;BME280;11135;54.192;15.670;2022-08-16T07:39:51;59315.84;;;-145.26;100.00
21942;BME280;11135;54.192;15.670;2022-08-16T07:45:56;59315.84;;;-145.26;100.00
21942;BME280;11135;54.192;15.670;2022-08-16T07:52:04;59315.84;;;-145.26;100.00
21942;BME280;11135;54.192;15.670;2022-08-16T07:58:21;59315.84;;;-145.26;100.00
21942;BME280;11135;54.192;15.670;2022-08-16T08:04:36;59315.84;;;-145.26;100.00
21942;BME280;11135;54.192;15.670;2022-08-16T08:10:42;59315.84;;;-145.26;100.00
21942;BME280;11135;54.192;15.670;2022-08-16T08:16:48;59315.84;;;-145.26;100.00
21942;BME280;11135;54.192;15.670;2022-08-16T08:22:55;59315.84;;;-145.26;100.00
21942;BME280;11135;54.192;15.670;2022-08-16T08:29:03;59315.84;;;-145.26;100.00
21942;BME280;11135;54.192;15.670;2022-08-16T08:35:09;59315.84;;;-145.26;100.00
21942;BME280;11135;54.192;15.670;2022-08-16T08:41:14;59315.84;;;-145.26;100.00
21942;BME280;11135;54.192;15.670;2022-08-16T08:47:22;59315.84;;;-145.26;100.00
21942;BME280;11135;54.192;15.670;2022-08-16T08:53:26;59315.84;;;-145.26;100.00
21942;BME280;11135;54.192;15.670;2022-08-16T08:59:32;59315.84;;;-145.26;100.00
21942;BME280;11135;54.192;15.670;2022-08-16T09:05:43;59315.84;;;-145.26;100.00
21942;BME280;11135;54.192;15.670;2022-08-16T09:11:54;59315.84;;;-145.26;100.00
21942;BME280;11135;54.192;15.670;2022-08-16T09:18:08;59315.84;;;-145.26;100.00
21942;BME280;11135;54.192;15.670;2022-08-16T09:24:29;59315.84;;;-145.26;100.00
21942;BME280;11135;54.192;15.670;2022-08-16T09:30:53;59315.84;;;-145.26;100.00
21942;BME280;11135;54.192;15.670;2022-08-16T09:36:58;59315.84;;;-145.26;100.00
21942;BME280;11135;54.192;15.670;2022-08-16T09:43:03;59315.84;;;-145.26;100.00
21942;BME280;11135;54.192;15.670;2022-08-16T09:49:07;59315.84;;;-145.26;100.00
21942;BME280;11135;54.192;15.670;2022-08-16T09:55:13;59315.84;;;-145.26;100.00
21942;BME280;11135;54.192;15.670;2022-08-16T10:01:18;59315.84;;;-145.26;100.00
21942;BME280;11135;54.192;15.670;2022-08-16T10:07:25;59315.84;;;-145.26;100.00
21942;BME280;11135;54.192;15.670;2022-08-16T10:13:46;59315.84;;;-145.26;100.00
21942;BME280;11135;54.192;15.670;2022-08-16T10:19:52;59315.84;;;-145.26;100.00
21942;BME280;11135;54.192;15.670;2022-08-16T10:25:57;59315.84;;;-145.26;100.00
21942;BME280;11135;54.192;15.670;2022-08-16T10:32:20;59315.84;;;-145.26;100.00
21942;BME280;11135;54.192;15.670;2022-08-16T10:38:26;59315.84;;;-145.26;100.00
21942;BME280;11135;54.192;15.670;2022-08-16T10:44:29;59315.84;;;-145.26;100.00
21942;BME280;11135;54.192;15.670;2022-08-16T10:50:33;59315.84;;;-145.26;100.00
21942;BME280;11135;54.192;15.670;2022-08-16T10:56:38;59315.84;;;-145.26;100.00
21942;BME280;11135;54.192;15.670;2022-08-16T11:02:57;59315.84;;;-145.26;100.00
21942;BME280;11135;54.192;15.670;2022-08-16T11:09:02;59315.84;;;-145.26;100.00
21942;BME280;11135;54.192;15.670;2022-08-16T11:15:27;59315.84;;;-145.26;100.00
21942;BME280;11135;54.192;15.670;2022-08-16T11:21:35;59315.84;;;-145.26;100.00
21942;BME280;11135;54.192;15.670;2022-08-16T11:27:59;59315.84;;;-145.26;100.00
21942;BME280;11135;54.192;15.670;2022-08-16T11:34:05;59315.84;;;-145.26;100.00
21942;BME280;11135;54.192;15.670;2022-08-16T11:40:09;59315.84;;;-145.26;100.00
21942;BME280;11135;54.192;15.670;2022-08-16T11:46:15;59315.84;;;-145.26;100.00
21942;BME280;11135;54.192;15.670;2022-08-16T11:52:42;59315.84;;;-145.26;100.00
21942;BME280;11135;54.192;15.670;2022-08-16T11:58:47;59315.84;;;-145.26;100.00
21942;BME280;11135;54.192;15.670;2022-08-16T12:04:57;59315.84;;;-145.26;100.00
21942;BME280;11135;54.192;15.670;2022-08-16T12:11:03;59315.84;;;-145.26;100.00
21942;BME280;11135;54.192;15.670;2022-08-16T12:17:08;59315.84;;;-145.26;100.00
21942;BME280;11135;54.192;15.670;2022-08-16T12:23:11;59315.84;;;-145.26;100.00
21942;BME280;11135;54.192;15.670;2022-08-16T12:29:20;59315.84;;;-145.26;100.00
21942;BME280;11135;54.192;15.670;2022-08-16T12:35:34;59315.84;;;-145.26;100.00
21942;BME280;11135;54.192;15.670;2022-08-16T12:41:38;59315.84;;;-145.26;100.00
21942;BME280;11135;54.192;15.670;2022-08-16T12:47:47;59315.84;;;-145.26;100.00
21942;BME280;11135;54.192;15.670;2022-08-16T12:54:28;59315.84;;;-145.26;100.00
21942;BME280;11135;54.192;15.670;2022-08-16T13:00:33;59315.84;;;-145.26;100.00
21942;BME280;11135;54.192;15.670;2022-08-16T13:06:42;59315.84;;;-145.26;100.00
21942;BME280;11135;54.192;15.670;2022-08-16T13:12:49;59315.84;;;-145.26;100.00
21942;BME280;11135;54.192;15.670;2022-08-16T13:18:54;59315.84;;;-145.26;100.00
21942;BME280;11135;54.192;15.670;2022-08-16T13:24:59;59315.84;;;-145.26;100.00
21942;BME280;11135;54.192;15.670;2022-08-16T13:31:03;59315.84;;;-145.26;100.00
21942;BME280;11135;54.192;15.670;2022-08-16T13:37:09;59315.84;;;-145.26;100.00
21942;BME280;11135;54.192;15.670;2022-08-16T13:43:17;59315.84;;;-145.26;100.00
21942;BME280;11135;54.192;15.670;2022-08-16T13:49:20;59315.84;;;-145.26;100.00
21942;BME280;11135;54.192;15.670;2022-08-16T13:55:24;59315.84;;;-145.26;100.00
21942;BME280;11135;54.192;15.670;2022-08-16T14:01:31;59315.84;;;-145.26;100.00
21942;BME280;11135;54.192;15.670;2022-08-16T14:07:39;59315.84;;;-145.26;100.00
21942;BME280;11135;54.192;15.670;2022-08-16T14:13:43;59315.84;;;-145.26;100.00
21942;BME280;11135;54.192;15.670;2022-08-16T14:19:49;59315.84;;;-145.26;100.00
21942;BME280;11135;54.192;15.670;2022-08-16T14:25:53;59315.84;;;-145.26;100.00
21942;BME280;11135;54.192;15.670;2022-08-16T14:31:58;59315.84;;;-145.26;100.00
21942;BME280;11135;54.192;15.670;2022-08-16T14:38:04;59315.84;;;-145.26;100.00
21942;BME280;11135;54.192;15.670;2022-08-16T14:44:07;59315.84;;;-145.26;100.00
21942;BME280;11135;54.192;15.670;2022-08-16T14:50:14;59315.84;;;-145.26;100.00
21942;BME280;11135;54.192;15.670;2022-08-16T14:56:20;59315.84;;;-145.26;100.00
21942;BME280;11135;54.192;15.670;2022-08-16T15:02:49;59315.84;;;-145.26;100.00
21942;BME280;11135;54.192;15.670;2022-08-16T15:08:55;59315.84;;;-145.26;100.00
21942;BME280;11135;54.192;15.670;2022-08-16T15:15:02;59315.84;;;-145.26;100.00
21942;BME280;11135;54.192;15.670;2022-08-16T15:21:14;59315.84;;;-145.26;100.00
21942;BME280;11135;54.192;15.670;2022-08-16T15:27:18;59315.84;;;-145.26;100.00
21942;BME280;11135;54.192;15.670;2022-08-16T15:33:23;59315.84;;;-145.26;100.00
21942;BME280;11135;54.192;15.670;2022-08-16T15:39:26;59315.84;;;-145.26;100.00
21942;BME280;11135;54.192;15.670;2022-08-16T15:45:40;59315.84;;;-145.26;100.00
21942;BME280;11135;54.192;15.670;2022-08-16T15:52:08;59315.84;;;-145.26;100.00
21942;BME280;11135;54.192;15.670;2022-08-16T15:58:13;59315.84;;;-145.26;100.00
21942;BME280;11135;54.192;15.670;2022-08-16T16:04:37;59315.84;;;-145.26;100.00
21942;BME280;11135;54.192;15.670;2022-08-16T16:10:45;59315.84;;;-145.26;100.00
21942;BME280;11135;54.192;15.670;2022-08-16T16:16:55;59315.84;;;-145.26;100.00
21942;BME280;11135;54.192;15.670;2022-08-16T16:23:05;59315.84;;;-145.26;100.00
21942;BME280;11135;54.192;15.670;2022-08-16T16:29:13;59315.84;;;-145.26;100.00
21942;BME280;11135;54.192;15.670;2022-08-16T16:35:17;59315.84;;;-145.26;100.00
21942;BME280;11135;54.192;15.670;2022-08-16T16:41:28;59315.84;;;-145.26;100.00
21942;BME280;11135;54.192;15.670;2022-08-16T16:47:34;59315.84;;;-145.26;100.00
21942;BME280;11135;54.192;15.670;2022-08-16T16:53:46;59315.84;;;-145.26;100.00
21942;BME280;11135;54.192;15.670;2022-08-16T16:59:57;59315.84;;;-145.26;100.00
21942;BME280;11135;54.192;15.670;2022-08-16T17:06:07;59315.84;;;-145.26;100.00
21942;BME280;11135;54.192;15.670;2022-08-16T17:12:12;59315.84;;;-145.26;100.00
21942;BME280;11135;54.192;15.670;2022-08-16T17:18:36;59315.84;;;-145.26;100.00
21942;BME280;11135;54.192;15.670;2022-08-16T17:25:03;59315.84;;;-145.26;100.00
21942;BME280;11135;54.192;15.670;2022-08-16T17:31:09;59315.84;;;-145.26;100.00
21942;BME280;11135;54.192;15.670;2022-08-16T17:37:17;59315.84;;;-145.26;100.00
21942;BME280;11135;54.192;15.670;2022-08-16T17:43:46;59315.84;;;-145.26;100.00
21942;BME280;11135;54.192;15.670;2022-08-16T17:49:49;59315.84;;;-145.26;100.00
21942;BME280;11135;54.192;15.670;2022-08-16T17:55:54;59315.84;;;-145.26;100.00
21942;BME280;11135;54.192;15.670;2022-08-16T18:01:59;59315.84;;;-145.26;100.00
21942;BME280;11135;54.192;15.670;2022-08-16T18:08:23;59315.84;;;-145.26;100.00
21942;BME280;11135;54.192;15.670;2022-08-16T18:14:31;59315.84;;;-145.26;100.00
21942;BME280;11135;54.192;15.670;2022-08-16T18:20:56;59315.84;;;-145.26;100.00
21942;BME280;11135;54.192;15.670;2022-08-16T18:27:32;59315.84;;;-145.26;100.00
21942;BME280;11135;54.192;15.670;2022-08-16T18:33:37;59315.84;;;-145.26;100.00
21942;BME280;11135;54.192;15.670;2022-08-16T18:39:46;59315.84;;;-145.26;100.00
21942;BME280;11135;54.192;15.670;2022-08-16T18:45:52;59315.84;;;-145.26;100.00
21942;BME280;11135;54.192;15.670;2022-08-16T18:51:58;59315.84;;;-145.26;100.00
21942;BME280;11135;54.192;15.670;2022-08-16T18:58:05;59315.84;;;-145.26;100.00
21942;BME280;11135;54.192;15.670;2022-08-16T19:04:09;59315.84;;;-145.26;100.00
21942;BME280;11135;54.192;15.670;2022-08-16T19:10:34;59315.84;;;-145.26;100.00
21942;BME280;11135;54.192;15.670;2022-08-16T19:16:40;100593.03;;;23.67;68.12
21942;BME280;11135;54.192;15.670;2022-08-16T19:22:46;100902.41;;;25.61;60.71
21942;BME280;11135;54.192;15.670;2022-08-16T19:29:07;100913.72;;;25.59;60.74
21942;BME280;11135;54.192;15.670;2022-08-16T19:35:12;100907.75;;;25.54;61.03
21942;BME280;11135;54.192;15.670;2022-08-16T19:41:18;100907.41;;;25.49;61.71
21942;BME280;11135;54.192;15.670;2022-08-16T19:47:22;100905.13;;;25.44;61.87
21942;BME280;11135;54.192;15.670;2022-08-16T19:53:27;100911.75;;;25.43;61.28
21942;BME280;11135;54.192;15.670;2022-08-16T19:59:31;100911.88;;;25.34;61.58
21942;BME280;11135;54.192;15.670;2022-08-16T20:05:42;100908.38;;;25.32;61.94
21942;BME280;11135;54.192;15.670;2022-08-16T20:11:50;100903.09;;;25.21;62.38
21942;BME280;11135;54.192;15.670;2022-08-16T20:17:57;100903.19;;;25.11;62.62
21942;BME280;11135;54.192;15.670;2022-08-16T20:24:01;100908.94;;;25.09;62.80
21942;BME280;11135;54.192;15.670;2022-08-16T20:30:27;100914.66;;;25.42;62.07
21942;BME280;11135;54.192;15.670;2022-08-16T20:36:31;100919.47;;;25.66;62.05
21942;BME280;11135;54.192;15.670;2022-08-16T20:42:34;100912.41;;;25.71;61.94
21942;BME280;11135;54.192;15.670;2022-08-16T20:48:40;100926.53;;;25.78;61.48
21942;BME280;11135;54.192;15.670;2022-08-16T20:54:46;100937.19;;;25.83;61.98
21942;BME280;11135;54.192;15.670;2022-08-16T21:00:50;100944.00;;;25.88;61.53
21942;BME280;11135;54.192;15.670;2022-08-16T21:06:55;59315.84;;;-145.26;100.00
21942;BME280;11135;54.192;15.670;2022-08-16T21:12:59;59315.84;;;-145.26;100.00
21942;BME280;11135;54.192;15.670;2022-08-16T21:19:05;59315.84;;;-145.26;100.00
21942;BME280;11135;54.192;15.670;2022-08-16T21:25:14;59315.84;;;-145.26;100.00
21942;BME280;11135;54.192;15.670;2022-08-16T21:31:24;59315.84;;;-145.26;100.00
21942;BME280;11135;54.192;15.670;2022-08-16T21:37:27;59315.84;;;-145.26;100.00
21942;BME280;11135;54.192;15.670;2022-08-16T21:43:33;59315.84;;;-145.26;100.00
21942;BME280;11135;54.192;15.670;2022-08-16T21:49:37;59315.84;;;-145.26;100.00
21942;BME280;11135;54.192;15.670;2022-08-16T21:55:43;59315.84;;;-145.26;100.00
21942;BME280;11135;54.192;15.670;2022-08-16T22:01:48;59315.84;;;-145.26;100.00
21942;BME280;11135;54.192;15.670;2022-08-16T22:07:52;59315.84;;;-145.26;100.00
21942;BME280;11135;54.192;15.670;2022-08-16T22:14:03;59315.84;;;-145.26;100.00
21942;BME280;11135;54.192;15.670;2022-08-16T22:20:09;59315.84;;;-145.26;100.00
21942;BME280;11135;54.192;15.670;2022-08-16T22:26:13;59315.84;;;-145.26;100.00
21942;BME280;11135;54.192;15.670;2022-08-16T22:32:16;59315.84;;;-145.26;100.00
21942;BME280;11135;54.192;15.670;2022-08-16T22:38:22;59315.84;;;-145.26;100.00
21942;BME280;11135;54.192;15.670;2022-08-16T22:44:46;59315.84;;;-145.26;100.00
21942;BME280;11135;54.192;15.670;2022-08-16T22:50:50;59315.84;;;-145.26;100.00
21942;BME280;11135;54.192;15.670;2022-08-16T22:56:55;59315.84;;;-145.26;100.00
21942;BME280;11135;54.192;15.670;2022-08-16T23:03:01;59315.84;;;-145.26;100.00
21942;BME280;11135;54.192;15.670;2022-08-16T23:09:05;59315.84;;;-145.26;100.00
21942;BME280;11135;54.192;15.670;2022-08-16T23:15:10;59315.84;;;-145.26;100.00
21942;BME280;11135;54.192;15.670;2022-08-16T23:21:15;59315.84;;;-145.26;100.00
21942;BME280;11135;54.192;15.670;2022-08-16T23:27:19;59315.84;;;-145.26;100.00
21942;BME280;11135;54.192;15.670;2022-08-16T23:33:26;59315.84;;;-145.26;100.00
21942;BME280;11135;54.192;15.670;2022-08-16T23:39:30;59315.84;;;-145.26;100.00
21942;BME280;11135;54.192;15.670;2022-08-16T23:45:35;59315.84;;;-145.26;100.00
21942;BME280;11135;54.192;15.670;2022-08-16T23:51:41;59315.84;;;-145.26;100.00
21942;BME280;11135;54.192;15.670;2022-08-16T23:57:45;59315.84;;;-145.26;100.00
